Madisonville, KY

8:43 PM CST on December 09, 2019 (GMT -0600)
Madisonville

Weather History for K2I0 - October, 2019

Change the Weather History Date:

Saturday, October 12, 2019

  Actual Average (KOWB) Record (KOWB)
Temperature  
Mean Temperature 47 °F -  
Max Temperature 59 °F 74 °F 88 °F (1961)
Min Temperature 35 °F 48 °F 31 °F (1967)
Degree Days  
Heating Degree Days 18    
Moisture  
Dew Point 31 °F    
Average Humidity 64    
Maximum Humidity 100    
Minimum Humidity 21    
Precipitation  
Precipitation 0.00 in - - ()
Sea Level Pressure  
Sea Level Pressure 30.18 in    
Wind  
Wind Speed 2 mph ()    
Max Wind Speed 9 mph    
Max Gust Speed -    
Visibility 9.4 miles    
Events      
Averages and records for this station are not official NWS values.
T = Trace of Precipitation, MM = Missing Value Source: Averaged Metar Reports

Daily Weather History Graph

Daily Weather History Graph

Search for Another Location

Airport or City:

Astronomy

Oct. 12, 2019 Rise Set
Actual Time 6:54 AM CDT 6:16 PM CDT
Civil Twilight 6:28 AM CDT 6:43 PM CDT
Nautical Twilight 5:58 AM CDT 7:13 PM CDT
Astronomical Twilight 5:27 AM CDT 7:43 PM CDT
Moon 6:10 PM CDT (10/12) 5:34 AM CDT (10/12)
Length of Visible Light 12h 14m
Length of Day
11h 22m
Waxing Gibbous, 99% of the Moon is Illuminated
Oct 12
Waxing Gibbous
Oct 13
Full
Oct 21
Last Quarter
Oct 27
New
Nov 4
First Quarter

Hourly Weather History & Observations

Time (CDT) Temp. Windchill Dew Point Humidity Pressure Visibility Wind Dir Wind Speed Gust Speed Precip Events Conditions
12:15 AM 43.9 °F 40.5 °F 37.0 °F 77% 30.20 in 10.0 mi NNW 5.8 mph - N/A   Clear
12:35 AM 43.5 °F 40.9 °F 36.9 °F 77% 30.20 in 10.0 mi NNW 4.6 mph - N/A   Clear
12:55 AM 42.8 °F 41.1 °F 36.7 °F 79% 30.20 in 10.0 mi NNW 3.5 mph - N/A   Clear
1:15 AM 42.1 °F 40.2 °F 36.3 °F 80% 30.21 in 10.0 mi NW 3.5 mph - N/A   Clear
1:35 AM 41.4 °F 39.4 °F 36.1 °F 82% 30.21 in 10.0 mi WNW 3.5 mph - N/A   Clear
1:55 AM 40.5 °F 38.4 °F 36.0 °F 84% 30.21 in 10.0 mi WNW 3.5 mph - N/A   Clear
2:15 AM 40.1 °F 38.0 °F 35.8 °F 85% 30.21 in 10.0 mi WNW 3.5 mph - N/A   Clear
2:35 AM 39.4 °F 37.2 °F 35.2 °F 85% 30.21 in 10.0 mi West 3.5 mph - N/A   Clear
3:15 AM 38.3 °F - 34.5 °F 86% 30.21 in 10.0 mi Calm Calm - N/A   Clear
3:35 AM 37.2 °F 34.7 °F 33.4 °F 86% 30.21 in 10.0 mi SW 3.5 mph - N/A   Clear
3:55 AM 37.4 °F 34.9 °F 34.2 °F 88% 30.21 in 10.0 mi SW 3.5 mph - N/A   Clear
4:15 AM 37.4 °F - 34.7 °F 90% 30.21 in 7.0 mi Calm Calm - N/A   Clear
4:35 AM 36.9 °F - 34.3 °F 91% 30.21 in 5.0 mi Calm Calm - N/A   Clear
4:55 AM 37.4 °F 34.9 °F 37.4 °F 100% 30.21 in 5.0 mi WSW 3.5 mph - N/A   Clear
5:15 AM 37.2 °F - 37.2 °F 100% 30.22 in 5.0 mi Calm Calm - N/A   Clear
5:55 AM 36.0 °F - 36.0 °F 100% 30.23 in 7.0 mi Calm Calm - N/A   Clear
6:15 AM 36.1 °F - 36.1 °F 100% 30.24 in 7.0 mi Calm Calm - N/A   Clear
6:35 AM 36.1 °F - 36.1 °F 100% 30.24 in 5.0 mi Calm Calm - N/A   Clear
6:55 AM 36.3 °F - 36.3 °F 100% 30.24 in 7.0 mi Calm Calm - N/A   Clear
7:15 AM 35.8 °F - 35.8 °F 100% 30.24 in 10.0 mi Calm Calm - N/A   Clear
7:35 AM 36.5 °F 33.9 °F 36.5 °F 100% 30.25 in 10.0 mi SW 3.5 mph - N/A   Clear
7:55 AM 38.5 °F - 38.5 °F 100% 30.25 in 10.0 mi Calm Calm - N/A   Clear
8:15 AM 40.6 °F 38.6 °F 36.7 °F 86% 30.25 in 10.0 mi WSW 3.5 mph - N/A   Clear
8:35 AM 42.3 °F 40.5 °F 36.5 °F 80% 30.25 in 10.0 mi WSW 3.5 mph - N/A   Clear
8:55 AM 43.7 °F 42.1 °F 35.6 °F 73% 30.24 in 10.0 mi West 3.5 mph - N/A   Clear
9:35 AM 46.8 °F - 32.9 °F 59% 30.24 in 10.0 mi Calm Calm - N/A   Clear
9:55 AM 48.0 °F - 29.5 °F 49% 30.25 in 10.0 mi Calm Calm - N/A   Clear
10:15 AM 49.1 °F - 27.0 °F 42% 30.25 in 10.0 mi Calm Calm - N/A   Clear
10:35 AM 49.6 °F - 25.9 °F 40% 30.24 in 10.0 mi Calm Calm - N/A   Clear
10:55 AM 50.7 °F - 26.4 °F 39% 30.24 in 10.0 mi East 4.6 mph - N/A   Clear
11:15 AM 51.1 °F - 27.1 °F 40% 30.24 in 10.0 mi ESE 4.6 mph - N/A   Clear
11:35 AM 51.8 °F - 26.4 °F 37% 30.24 in 10.0 mi South 4.6 mph - N/A   Clear
11:55 AM 52.2 °F - 26.1 °F 36% 30.24 in 10.0 mi Calm Calm - N/A   Clear
12:15 PM 54.1 °F - 28.0 °F 37% 30.24 in 10.0 mi Calm Calm - N/A   Clear
12:35 PM 54.3 °F - 27.5 °F 36% 30.23 in 10.0 mi Calm Calm - N/A   Clear
12:55 PM 55.0 °F - 25.0 °F 31% 30.21 in 10.0 mi SW 4.6 mph - N/A   Clear
1:15 PM 55.4 °F - 21.4 °F 27% 30.20 in 10.0 mi SW 4.6 mph - N/A   Clear
1:35 PM 57.0 °F - 21.7 °F 26% 30.19 in 10.0 mi NW 8.1 mph - N/A   Clear
1:55 PM 57.0 °F - 20.8 °F 25% 30.18 in 10.0 mi West 6.9 mph - N/A   Clear
2:15 PM 58.1 °F - 21.6 °F 24% 30.18 in 10.0 mi West 9.2 mph - N/A   Clear
2:35 PM 58.5 °F - 20.8 °F 23% 30.17 in 10.0 mi SW 4.6 mph - N/A   Clear
2:55 PM 58.6 °F - 21.2 °F 24% 30.16 in 10.0 mi Calm Calm - N/A   Clear
3:35 PM 59.2 °F - 19.4 °F 21% 30.14 in 10.0 mi North 3.5 mph - N/A   Clear
3:55 PM 59.7 °F - 19.4 °F 21% 30.13 in 10.0 mi Calm Calm - N/A   Clear
4:15 PM 59.7 °F - 21.6 °F 23% 30.12 in 10.0 mi SSE 3.5 mph - N/A   Clear
4:35 PM 59.4 °F - 21.0 °F 23% 30.12 in 10.0 mi South 3.5 mph - N/A   Clear
4:55 PM 59.4 °F - 22.5 °F 24% 30.12 in 10.0 mi South 5.8 mph - N/A   Clear
5:15 PM 58.8 °F - 22.3 °F 24% 30.12 in 10.0 mi SSE 4.6 mph - N/A   Clear
5:35 PM 58.1 °F - 23.2 °F 26% 30.11 in 10.0 mi South 3.5 mph - N/A   Clear
6:15 PM 55.2 °F - 27.7 °F 35% 30.10 in 10.0 mi Calm Calm - N/A   Clear
6:35 PM 53.2 °F - 30.0 °F 41% 30.10 in 10.0 mi Calm Calm - N/A   Clear
6:55 PM 48.0 °F - 32.5 °F 55% 30.10 in 10.0 mi Calm Calm - N/A   Clear
7:15 PM 48.0 °F - 33.6 °F 57% 30.10 in 10.0 mi South 3.5 mph - N/A   Clear
7:35 PM 46.9 °F - 34.5 °F 62% 30.10 in 10.0 mi Calm Calm - N/A   Clear
7:55 PM 45.0 °F - 33.8 °F 65% 30.10 in 10.0 mi Calm Calm - N/A   Clear
8:15 PM 45.0 °F - 34.2 °F 66% 30.10 in 10.0 mi Calm Calm - N/A   Clear
8:35 PM 45.7 °F 44.4 °F 36.0 °F 69% 30.10 in 10.0 mi South 3.5 mph - N/A   Clear
8:55 PM 44.2 °F - 35.2 °F 71% 30.10 in 10.0 mi Calm Calm - N/A   Clear
9:15 PM 43.9 °F - 36.1 °F 74% 30.10 in 10.0 mi Calm Calm - N/A   Clear
9:35 PM 42.8 °F - 36.9 °F 80% 30.10 in 10.0 mi Calm Calm - N/A   Clear
9:55 PM 42.6 °F - 37.6 °F 82% 30.09 in 10.0 mi Calm Calm - N/A   Clear
10:15 PM 41.0 °F - 36.3 °F 83% 30.09 in 10.0 mi Calm Calm - N/A   Clear
10:35 PM 40.5 °F - 36.3 °F 85% 30.09 in 10.0 mi Calm Calm - N/A   Clear
10:55 PM 39.9 °F - 35.4 °F 84% 30.08 in 10.0 mi Calm Calm - N/A   Clear
11:15 PM 40.1 °F - 35.8 °F 85% 30.08 in 10.0 mi Calm Calm - N/A   Clear
11:35 PM 38.7 °F - 35.1 °F 87% 30.08 in 7.0 mi Calm Calm - N/A   Clear
11:55 PM 38.3 °F - 35.2 °F 89% 30.07 in 7.0 mi Calm Calm - N/A   Clear